Time;durP1;ratioP1;P1;durP2;ratioP2;P2;SDS_P1;SDS_P2;PMS_P1;PMS_P2;Temp;Humidity;BMP_temperature;BMP_pressure;BME280_temperature;BME280_humidity;BME280_pressure;Samples;Min_cycle;Max_cycle;Signal;HPM_P1;HPM_P2
2022/12/02 00:01:21;;;;;;;;;;;17.30;44.40;;;;;;8335828;28;19928;-44
2022/12/02 00:05:24;;;;;;;;;;;17.30;44.50;;;;;;8336193;28;19928;-46
2022/12/02 00:09:32;;;;;;;;;;;17.30;44.40;;;;;;8336836;28;20373;-45
2022/12/02 00:13:40;;;;;;;;;;;17.30;44.40;;;;;;8335691;28;20344;-44
2022/12/02 00:17:40;;;;;;;;;;;17.30;44.40;;;;;;8336098;28;20275;-45
2022/12/02 00:21:40;;;;;;;;;;;17.30;44.40;;;;;;8335342;28;19917;-45
2022/12/02 00:25:43;;;;;;;;;;;17.30;44.40;;;;;;8335941;28;19925;-44
2022/12/02 00:29:44;;;;;;;;;;;17.30;44.40;;;;;;8335699;28;19921;-44
2022/12/02 00:33:44;;;;;;;;;;;17.30;44.50;;;;;;8334926;28;19917;-44
2022/12/02 00:37:45;;;;;;;;;;;17.30;44.50;;;;;;8335208;28;20327;-44
2022/12/02 00:41:45;;;;;;;;;;;17.30;44.40;;;;;;8335382;28;20362;-44
2022/12/02 00:50:05;;;;;;;;;;;17.30;44.40;;;;;;8341924;28;19920;-45
2022/12/02 00:54:06;;;;;;;;;;;17.30;44.40;;;;;;8335005;28;19917;-46
2022/12/02 00:58:06;;;;;;;;;;;17.30;44.40;;;;;;8334434;28;20271;-43
2022/12/02 01:02:07;;;;;;;;;;;17.30;44.40;;;;;;8333381;28;19924;-44
2022/12/02 01:06:07;;;;;;;;;;;17.30;44.40;;;;;;8334436;28;19925;-45
2022/12/02 01:10:08;;;;;;;;;;;17.30;44.40;;;;;;8333231;28;19925;-45
2022/12/02 01:14:08;;;;;;;;;;;17.30;44.40;;;;;;8334284;28;20000;-46
2022/12/02 01:18:09;;;;;;;;;;;17.30;44.40;;;;;;8334223;28;20358;-46
2022/12/02 01:22:09;;;;;;;;;;;17.30;44.50;;;;;;8333626;28;20000;-46
2022/12/02 01:26:10;;;;;;;;;;;17.30;44.50;;;;;;8334074;28;19929;-45
2022/12/02 01:30:11;;;;;;;;;;;17.30;44.40;;;;;;8332703;28;19925;-45
2022/12/02 01:34:11;;;;;;;;;;;17.30;44.40;;;;;;8333255;28;19970;-45
2022/12/02 01:38:12;;;;;;;;;;;17.30;44.40;;;;;;8333400;28;19971;-45
2022/12/02 01:42:12;;;;;;;;;;;17.30;44.40;;;;;;8333543;28;19913;-45
2022/12/02 01:46:13;;;;;;;;;;;17.30;44.40;;;;;;8332724;28;19925;-45
2022/12/02 01:50:15;;;;;;;;;;;17.30;44.40;;;;;;8333706;28;19917;-45
2022/12/02 01:54:15;;;;;;;;;;;17.30;44.40;;;;;;8332990;28;19917;-46
2022/12/02 01:58:18;;;;;;;;;;;17.30;44.40;;;;;;8332749;28;19917;-45
2022/12/02 02:02:38;;;;;;;;;;;17.30;44.40;;;;;;8332861;28;19913;-45
2022/12/02 02:06:41;;;;;;;;;;;17.30;44.40;;;;;;8327139;28;19953;-44
2022/12/02 02:10:42;;;;;;;;;;;17.30;44.40;;;;;;8299811;28;19949;-45
2022/12/02 02:14:42;;;;;;;;;;;17.30;44.40;;;;;;8329055;28;20286;-46
2022/12/02 02:18:43;;;;;;;;;;;17.20;44.40;;;;;;8331788;28;19928;-45
2022/12/02 02:23:02;;;;;;;;;;;17.20;44.40;;;;;;8332277;28;20370;-45
2022/12/02 02:27:02;;;;;;;;;;;17.20;44.40;;;;;;8332098;28;19948;-47
2022/12/02 02:31:03;;;;;;;;;;;17.20;44.40;;;;;;8331617;28;19914;-46
2022/12/02 02:35:03;;;;;;;;;;;17.30;44.50;;;;;;8331917;28;19925;-45
2022/12/02 02:39:04;;;;;;;;;;;17.20;44.40;;;;;;8331704;28;20455;-46
2022/12/02 02:43:05;;;;;;;;;;;17.30;44.40;;;;;;8330935;28;19971;-46
2022/12/02 02:47:05;;;;;;;;;;;17.20;44.40;;;;;;8331113;28;20023;-46
2022/12/02 02:51:07;;;;;;;;;;;17.30;44.40;;;;;;8331543;28;20362;-47
2022/12/02 02:55:09;;;;;;;;;;;17.20;44.40;;;;;;8330634;28;19987;-46
2022/12/02 02:59:11;;;;;;;;;;;17.20;44.40;;;;;;8331140;28;19917;-46
2022/12/02 03:03:13;;;;;;;;;;;17.20;44.40;;;;;;8330864;28;19963;-46
2022/12/02 03:07:14;;;;;;;;;;;17.20;44.50;;;;;;8329969;28;19932;-45
2022/12/02 03:11:14;;;;;;;;;;;17.20;44.50;;;;;;8330822;28;20298;-45
2022/12/02 03:15:15;;;;;;;;;;;17.20;44.40;;;;;;8330547;28;19947;-44
2022/12/02 03:19:16;;;;;;;;;;;17.20;44.40;;;;;;8330109;28;20000;-45
2022/12/02 03:23:17;;;;;;;;;;;17.20;44.40;;;;;;8329803;28;19921;-46
2022/12/02 03:27:17;;;;;;;;;;;17.20;44.40;;;;;;8330405;28;19932;-45
2022/12/02 03:31:18;;;;;;;;;;;17.20;44.40;;;;;;8330031;28;19964;-45
2022/12/02 03:35:18;;;;;;;;;;;17.20;44.40;;;;;;8330281;28;20326;-45
2022/12/02 03:39:19;;;;;;;;;;;17.20;44.50;;;;;;8330111;28;20028;-45
2022/12/02 03:43:19;;;;;;;;;;;17.20;44.40;;;;;;8329646;28;20293;-45
2022/12/02 03:47:20;;;;;;;;;;;17.20;44.40;;;;;;8330167;28;19929;-45
2022/12/02 03:51:20;;;;;;;;;;;17.20;44.50;;;;;;8330097;28;19952;-46
2022/12/02 03:55:21;;;;;;;;;;;17.20;44.50;;;;;;8329346;28;19921;-45
2022/12/02 03:59:26;;;;;;;;;;;17.20;44.50;;;;;;8329841;28;19917;-45
2022/12/02 04:03:26;;;;;;;;;;;17.20;44.50;;;;;;8329703;28;19948;-45
2022/12/02 04:07:26;;;;;;;;;;;17.20;44.50;;;;;;8329099;28;19929;-44
2022/12/02 04:11:27;;;;;;;;;;;17.20;44.50;;;;;;8329955;28;19924;-45
2022/12/02 04:15:27;;;;;;;;;;;17.20;44.50;;;;;;8329881;28;20396;-45
2022/12/02 04:19:28;;;;;;;;;;;17.20;44.50;;;;;;8328990;28;19917;-44
2022/12/02 04:23:30;;;;;;;;;;;17.20;44.60;;;;;;8328841;28;20291;-44
2022/12/02 04:27:30;;;;;;;;;;;17.20;44.60;;;;;;8329244;28;20301;-45
2022/12/02 04:31:31;;;;;;;;;;;17.20;44.60;;;;;;8329092;28;19914;-45
2022/12/02 04:35:31;;;;;;;;;;;17.20;44.50;;;;;;8332517;28;20052;-45
2022/12/02 04:39:32;;;;;;;;;;;17.20;44.60;;;;;;8335295;28;19947;-45
2022/12/02 04:43:32;;;;;;;;;;;17.30;44.60;;;;;;8334719;28;19921;-45
2022/12/02 04:47:33;;;;;;;;;;;17.30;44.60;;;;;;8335191;28;19961;-45
2022/12/02 04:51:33;;;;;;;;;;;17.30;44.50;;;;;;8334755;28;19917;-43
2022/12/02 04:55:33;;;;;;;;;;;17.30;44.50;;;;;;8334773;28;19918;-45
2022/12/02 04:59:34;;;;;;;;;;;17.30;44.40;;;;;;8334596;28;19917;-46
2022/12/02 05:03:34;;;;;;;;;;;17.30;44.40;;;;;;8334381;28;20332;-44
2022/12/02 05:07:35;;;;;;;;;;;17.30;44.40;;;;;;8307978;28;19944;-46
2022/12/02 05:11:35;;;;;;;;;;;17.30;44.40;;;;;;8334474;28;19917;-44
2022/12/02 05:15:36;;;;;;;;;;;17.30;44.40;;;;;;8333697;28;19924;-44
2022/12/02 05:19:36;;;;;;;;;;;17.30;44.40;;;;;;8334326;28;20263;-44
2022/12/02 05:23:36;;;;;;;;;;;17.30;44.40;;;;;;8334009;28;19996;-45
2022/12/02 05:27:37;;;;;;;;;;;17.30;44.40;;;;;;8333318;28;19925;-45
2022/12/02 05:31:37;;;;;;;;;;;17.30;44.40;;;;;;8334214;28;19913;-45
2022/12/02 05:35:38;;;;;;;;;;;17.30;44.40;;;;;;8333658;28;20382;-46
2022/12/02 05:39:38;;;;;;;;;;;17.30;44.40;;;;;;8333015;28;20251;-45
2022/12/02 05:43:40;;;;;;;;;;;17.30;44.40;;;;;;8333614;28;19944;-45
2022/12/02 05:47:40;;;;;;;;;;;17.30;44.40;;;;;;8330937;28;19928;-46
2022/12/02 05:51:41;;;;;;;;;;;17.20;44.40;;;;;;8332800;28;19920;-46
2022/12/02 05:55:41;;;;;;;;;;;17.20;44.40;;;;;;8332941;28;19971;-46
2022/12/02 05:59:42;;;;;;;;;;;17.20;44.40;;;;;;8332999;28;19917;-45
2022/12/02 06:03:42;;;;;;;;;;;17.20;44.40;;;;;;8332408;28;19923;-46
2022/12/02 06:07:43;;;;;;;;;;;17.20;44.40;;;;;;8332637;28;19929;-45
2022/12/02 06:11:45;;;;;;;;;;;17.20;44.40;;;;;;8332705;28;19924;-45
2022/12/02 06:15:46;;;;;;;;;;;17.20;44.50;;;;;;8331902;28;19956;-45
2022/12/02 06:19:52;;;;;;;;;;;17.20;44.50;;;;;;8332102;28;19928;-45
2022/12/02 06:23:55;;;;;;;;;;;17.20;44.50;;;;;;8332174;28;19959;-45
2022/12/02 06:27:59;;;;;;;;;;;17.10;44.50;;;;;;8331454;28;19940;-45
2022/12/02 06:31:59;;;;;;;;;;;17.10;44.50;;;;;;8332120;28;20407;-45
2022/12/02 06:36:08;;;;;;;;;;;17.10;44.50;;;;;;8331587;28;19924;-45
2022/12/02 06:40:38;;;;;;;;;;;17.10;44.60;;;;;;8331129;28;19917;-45
2022/12/02 06:48:57;;;;;;;;;;;17.10;44.60;;;;;;8331037;28;19932;-45
2022/12/02 06:53:06;;;;;;;;;;;17.10;44.60;;;;;;8331344;28;20378;-45
2022/12/02 06:57:08;;;;;;;;;;;17.00;44.60;;;;;;8331221;28;20325;-48
2022/12/02 07:01:09;;;;;;;;;;;17.10;44.60;;;;;;8330620;28;19921;-45
2022/12/02 07:05:15;;;;;;;;;;;17.10;44.70;;;;;;8330881;28;19964;-45
2022/12/02 07:09:18;;;;;;;;;;;17.00;44.60;;;;;;8330826;28;19975;-46
2022/12/02 07:13:19;;;;;;;;;;;17.10;44.60;;;;;;8330164;28;20004;-45
2022/12/02 07:17:22;;;;;;;;;;;17.10;44.70;;;;;;8330863;28;20282;-43
2022/12/02 07:21:22;;;;;;;;;;;17.10;44.70;;;;;;8330445;28;20313;-44
2022/12/02 07:25:32;;;;;;;;;;;17.10;44.70;;;;;;8329949;28;19932;-45
2022/12/02 07:29:32;;;;;;;;;;;17.10;44.70;;;;;;8330380;28;19941;-45
2022/12/02 07:33:33;;;;;;;;;;;17.10;44.70;;;;;;8330301;28;19913;-46
2022/12/02 07:37:33;;;;;;;;;;;17.10;44.60;;;;;;8305851;28;19913;-46
2022/12/02 07:41:34;;;;;;;;;;;17.20;44.50;;;;;;8329858;28;19925;-45
2022/12/02 07:45:34;;;;;;;;;;;17.20;44.50;;;;;;8329509;28;20012;-45
2022/12/02 07:49:35;;;;;;;;;;;17.20;44.50;;;;;;8329855;28;20012;-48
2022/12/02 07:53:35;;;;;;;;;;;17.20;44.50;;;;;;8355697;28;19982;-44
2022/12/02 07:57:36;;;;;;;;;;;17.20;44.50;;;;;;8329608;28;19913;-45
2022/12/02 08:01:36;;;;;;;;;;;17.20;44.40;;;;;;8330019;28;19917;-44
2022/12/02 08:05:37;;;;;;;;;;;17.20;44.50;;;;;;8329550;28;19929;-45
2022/12/02 08:09:37;;;;;;;;;;;17.20;44.40;;;;;;8318473;28;19922;-44
2022/12/02 08:13:38;;;;;;;;;;;17.20;44.40;;;;;;8336553;28;19913;-44
2022/12/02 08:17:38;;;;;;;;;;;17.20;44.40;;;;;;8336193;28;19960;-44
2022/12/02 08:21:39;;;;;;;;;;;17.20;44.50;;;;;;8335541;28;19917;-44
2022/12/02 08:25:40;;;;;;;;;;;17.20;44.40;;;;;;8335655;28;19925;-45
2022/12/02 08:29:40;;;;;;;;;;;17.20;44.40;;;;;;8335824;28;19921;-45
2022/12/02 08:33:41;;;;;;;;;;;17.20;44.40;;;;;;8335431;28;19917;-45
2022/12/02 08:37:41;;;;;;;;;;;17.20;44.40;;;;;;8335367;28;20298;-45
2022/12/02 08:41:42;;;;;;;;;;;17.20;44.40;;;;;;8335251;28;19917;-45
2022/12/02 08:45:42;;;;;;;;;;;17.20;44.50;;;;;;8334619;28;19925;-47
2022/12/02 08:49:43;;;;;;;;;;;17.20;44.60;;;;;;8335221;28;19917;-46
2022/12/02 08:53:43;;;;;;;;;;;17.10;44.50;;;;;;8335385;28;19914;-45
2022/12/02 08:57:43;;;;;;;;;;;17.10;44.50;;;;;;8334350;28;19921;-45
2022/12/02 09:01:44;;;;;;;;;;;17.10;44.60;;;;;;8334793;28;19923;-45
2022/12/02 09:05:44;;;;;;;;;;;17.10;44.60;;;;;;8334605;28;19925;-45
2022/12/02 09:09:45;;;;;;;;;;;17.10;44.60;;;;;;8333892;28;19925;-46
2022/12/02 09:13:45;;;;;;;;;;;17.10;44.60;;;;;;8334847;28;19917;-45
2022/12/02 09:17:46;;;;;;;;;;;17.10;44.60;;;;;;8334408;28;20366;-44
2022/12/02 09:21:47;;;;;;;;;;;17.10;44.60;;;;;;8332482;28;19960;-45
2022/12/02 09:25:47;;;;;;;;;;;17.10;44.60;;;;;;8333922;28;20008;-44
2022/12/02 09:29:48;;;;;;;;;;;17.10;44.60;;;;;;8333744;28;19924;-45
2022/12/02 09:33:48;;;;;;;;;;;17.20;44.60;;;;;;8333256;28;19913;-45
2022/12/02 09:37:49;;;;;;;;;;;17.20;44.50;;;;;;8333622;28;19921;-44
2022/12/02 09:41:49;;;;;;;;;;;17.20;44.50;;;;;;8332189;28;20513;-44
2022/12/02 09:45:50;;;;;;;;;;;17.30;44.50;;;;;;8332841;28;19925;-45
2022/12/02 09:49:50;;;;;;;;;;;17.30;44.50;;;;;;8333502;28;19925;-45
2022/12/02 09:53:51;;;;;;;;;;;17.30;44.50;;;;;;8333324;28;19924;-45
2022/12/02 09:57:52;;;;;;;;;;;17.30;44.40;;;;;;8332435;28;19922;-45
2022/12/02 10:01:56;;;;;;;;;;;17.30;44.50;;;;;;8332986;28;19926;-46
2022/12/02 10:05:58;;;;;;;;;;;17.20;44.40;;;;;;8332451;28;19925;-46
2022/12/02 10:09:58;;;;;;;;;;;17.30;44.40;;;;;;8332053;28;19921;-46
2022/12/02 10:13:59;;;;;;;;;;;17.30;44.40;;;;;;8332929;28;19913;-46
2022/12/02 10:18:07;;;;;;;;;;;17.30;44.40;;;;;;8332370;28;20004;-46
2022/12/02 10:22:12;;;;;;;;;;;17.30;44.40;;;;;;8331610;28;19921;-45
2022/12/02 10:26:13;;;;;;;;;;;17.30;44.40;;;;;;8331853;28;19925;-46
2022/12/02 10:30:15;;;;;;;;;;;17.30;44.40;;;;;;8331612;28;19913;-46
2022/12/02 10:34:18;;;;;;;;;;;17.30;44.40;;;;;;8331172;28;19967;-46
2022/12/02 10:38:30;;;;;;;;;;;17.20;44.40;;;;;;8331439;28;20317;-45
2022/12/02 10:42:30;;;;;;;;;;;17.30;44.50;;;;;;8331278;28;19917;-46
2022/12/02 10:46:31;;;;;;;;;;;17.20;44.50;;;;;;8330747;28;19929;-45
2022/12/02 10:50:31;;;;;;;;;;;17.20;44.50;;;;;;8331472;28;20414;-45
2022/12/02 10:54:33;;;;;;;;;;;17.20;44.50;;;;;;8331866;28;19972;-44
2022/12/02 10:58:33;;;;;;;;;;;17.20;44.50;;;;;;8331327;28;19921;-45
2022/12/02 11:02:37;;;;;;;;;;;17.20;44.60;;;;;;8330754;28;20313;-45
2022/12/02 11:06:37;;;;;;;;;;;17.20;44.50;;;;;;8330459;28;19928;-44
2022/12/02 11:10:42;;;;;;;;;;;17.20;44.60;;;;;;8329623;28;19921;-45
2022/12/02 11:14:49;;;;;;;;;;;17.20;44.50;;;;;;8330785;28;20442;-45
2022/12/02 11:18:54;;;;;;;;;;;17.20;44.50;;;;;;8330162;28;19924;-44
2022/12/02 11:22:57;;;;;;;;;;;17.20;44.60;;;;;;8330236;28;20374;-45
2022/12/02 11:26:58;;;;;;;;;;;17.20;44.60;;;;;;8330110;28;20079;-45
2022/12/02 11:31:13;;;;;;;;;;;17.20;44.60;;;;;;8329576;28;19917;-44
2022/12/02 11:35:15;;;;;;;;;;;17.20;44.60;;;;;;8329999;28;19929;-45
2022/12/02 11:39:36;;;;;;;;;;;17.30;44.60;;;;;;8330481;28;19920;-44
2022/12/02 11:43:59;;;;;;;;;;;17.30;44.60;;;;;;8329000;28;19921;-46
2022/12/02 11:48:00;;;;;;;;;;;17.40;44.50;;;;;;8329531;28;20441;-46
2022/12/02 11:52:03;;;;;;;;;;;17.40;44.50;;;;;;8329247;28;19917;-44
2022/12/02 11:56:10;;;;;;;;;;;17.40;44.40;;;;;;8328584;28;19921;-47
2022/12/02 12:00:25;;;;;;;;;;;17.40;44.40;;;;;;8333678;28;19913;-48
2022/12/02 12:04:27;;;;;;;;;;;17.40;44.40;;;;;;8329221;28;20023;-45
2022/12/02 12:08:28;;;;;;;;;;;17.40;44.40;;;;;;8357126;28;19929;-47
2022/12/02 12:12:28;;;;;;;;;;;17.40;44.40;;;;;;8362315;28;19939;-48
2022/12/02 12:16:31;;;;;;;;;;;17.40;44.30;;;;;;8361715;28;19940;-47
2022/12/02 12:20:34;;;;;;;;;;;17.40;44.40;;;;;;8359433;28;20015;-44
2022/12/02 12:24:35;;;;;;;;;;;17.40;44.40;;;;;;8329132;28;19913;-44
2022/12/02 12:28:36;;;;;;;;;;;17.40;44.40;;;;;;8329140;28;19925;-45
2022/12/02 12:32:37;;;;;;;;;;;17.40;44.40;;;;;;8329770;28;19956;-46
2022/12/02 12:36:37;;;;;;;;;;;17.40;44.40;;;;;;8328907;28;19917;-47
2022/12/02 12:40:38;;;;;;;;;;;17.40;44.40;;;;;;8329530;28;19917;-46
2022/12/02 12:44:38;;;;;;;;;;;17.40;44.40;;;;;;8329622;28;19914;-46
2022/12/02 12:48:39;;;;;;;;;;;17.40;44.40;;;;;;8328585;28;20016;-45
2022/12/02 12:52:39;;;;;;;;;;;17.40;44.40;;;;;;8329045;28;19944;-45
2022/12/02 12:56:40;;;;;;;;;;;17.40;44.40;;;;;;8332222;28;19917;-44
2022/12/02 13:00:40;;;;;;;;;;;17.30;44.40;;;;;;8333805;28;19917;-44
2022/12/02 13:04:40;;;;;;;;;;;17.30;44.40;;;;;;8334664;28;20017;-44
2022/12/02 13:08:41;;;;;;;;;;;17.30;44.40;;;;;;8333985;28;20417;-45
2022/12/02 13:12:41;;;;;;;;;;;17.30;44.50;;;;;;8333733;28;20336;-48
2022/12/02 13:16:42;;;;;;;;;;;17.30;44.50;;;;;;8334280;28;19939;-45
2022/12/02 13:20:42;;;;;;;;;;;17.30;44.50;;;;;;8333927;28;19913;-43
2022/12/02 13:24:43;;;;;;;;;;;17.30;44.50;;;;;;8332371;28;19913;-46
2022/12/02 13:28:43;;;;;;;;;;;17.30;44.50;;;;;;8334088;28;19925;-48
2022/12/02 13:32:44;;;;;;;;;;;17.30;44.50;;;;;;8333363;28;19917;-45
2022/12/02 13:36:44;;;;;;;;;;;17.30;44.50;;;;;;8333008;28;20300;-48
2022/12/02 13:40:45;;;;;;;;;;;17.30;44.50;;;;;;8333570;28;19913;-46
2022/12/02 13:44:45;;;;;;;;;;;17.30;44.40;;;;;;8333655;28;19946;-45
2022/12/02 13:48:46;;;;;;;;;;;17.30;44.50;;;;;;8332436;28;19929;-46
2022/12/02 13:52:46;;;;;;;;;;;17.30;44.60;;;;;;8332929;28;19976;-45
2022/12/02 13:56:47;;;;;;;;;;;17.40;44.60;;;;;;8332964;28;19918;-45
2022/12/02 14:00:47;;;;;;;;;;;17.40;44.50;;;;;;8332739;28;20004;-45
2022/12/02 14:04:47;;;;;;;;;;;17.40;44.40;;;;;;8331162;28;20274;-47
2022/12/02 14:08:48;;;;;;;;;;;17.40;44.40;;;;;;8330501;28;20326;-46
2022/12/02 14:12:48;;;;;;;;;;;17.40;44.40;;;;;;8344896;28;19928;-48
2022/12/02 14:16:49;;;;;;;;;;;17.50;44.50;;;;;;8318997;28;19971;-47
2022/12/02 14:20:50;;;;;;;;;;;17.50;44.50;;;;;;8303937;28;20283;-48
2022/12/02 14:24:50;;;;;;;;;;;17.50;44.50;;;;;;8304118;28;19921;-46
2022/12/02 14:28:51;;;;;;;;;;;17.60;44.60;;;;;;8344729;28;19925;-47
2022/12/02 14:32:51;;;;;;;;;;;17.60;44.50;;;;;;8363665;28;19921;-44
2022/12/02 14:36:51;;;;;;;;;;;17.60;44.60;;;;;;8362611;28;19996;-46
2022/12/02 14:40:52;;;;;;;;;;;17.70;44.50;;;;;;8364603;28;19913;-45
2022/12/02 14:44:52;;;;;;;;;;;17.60;44.50;;;;;;8364979;28;20003;-45
2022/12/02 14:48:53;;;;;;;;;;;17.60;44.50;;;;;;8363822;28;19925;-45
2022/12/02 14:52:53;;;;;;;;;;;17.60;44.40;;;;;;8363958;28;19916;-46
2022/12/02 14:56:54;;;;;;;;;;;17.60;44.40;;;;;;8364001;28;19917;-48
2022/12/02 15:00:54;;;;;;;;;;;17.50;44.40;;;;;;8363704;28;19921;-46
2022/12/02 15:04:54;;;;;;;;;;;17.50;44.40;;;;;;8364120;28;19916;-45
2022/12/02 15:08:55;;;;;;;;;;;17.50;44.40;;;;;;8363633;28;19929;-46
2022/12/02 15:12:55;;;;;;;;;;;17.50;44.50;;;;;;8363245;28;20382;-48
2022/12/02 15:16:56;;;;;;;;;;;17.50;44.50;;;;;;8363798;28;19917;-45
2022/12/02 15:20:56;;;;;;;;;;;17.50;44.50;;;;;;8362557;28;19921;-48
2022/12/02 15:24:57;;;;;;;;;;;17.50;44.50;;;;;;8362558;28;19916;-48
2022/12/02 15:28:57;;;;;;;;;;;17.40;44.50;;;;;;8362946;28;20283;-46
2022/12/02 15:32:57;;;;;;;;;;;17.40;44.40;;;;;;8362921;28;19962;-47
2022/12/02 15:36:58;;;;;;;;;;;17.40;44.40;;;;;;8362606;28;19925;-48
2022/12/02 15:40:58;;;;;;;;;;;17.40;44.50;;;;;;8363226;28;19913;-48
2022/12/02 15:44:59;;;;;;;;;;;17.40;44.40;;;;;;8362761;28;19916;-46
2022/12/02 15:48:59;;;;;;;;;;;17.40;44.40;;;;;;8362256;28;20023;-45
2022/12/02 15:53:00;;;;;;;;;;;17.40;44.40;;;;;;8362583;28;19923;-45
2022/12/02 15:57:00;;;;;;;;;;;17.30;44.40;;;;;;8362853;28;19917;-45
2022/12/02 16:01:01;;;;;;;;;;;17.40;44.30;;;;;;8362551;28;19958;-44
2022/12/02 16:05:01;;;;;;;;;;;17.40;44.20;;;;;;8362898;28;20015;-44
2022/12/02 16:09:02;;;;;;;;;;;17.40;44.40;;;;;;8362382;28;19940;-48
2022/12/02 16:13:02;;;;;;;;;;;17.40;44.30;;;;;;8361961;28;19917;-44
2022/12/02 16:17:03;;;;;;;;;;;17.40;44.20;;;;;;8362431;28;20373;-48
2022/12/02 16:21:03;;;;;;;;;;;17.50;44.20;;;;;;8362515;28;19963;-44
2022/12/02 16:25:04;;;;;;;;;;;17.50;44.10;;;;;;8361770;28;20289;-44
2022/12/02 16:29:04;;;;;;;;;;;17.50;44.10;;;;;;8362176;28;19924;-46
2022/12/02 16:33:05;;;;;;;;;;;17.50;44.10;;;;;;8367777;28;19967;-45
2022/12/02 16:37:05;;;;;;;;;;;17.50;44.00;;;;;;8367553;28;19939;-45
2022/12/02 16:41:06;;;;;;;;;;;17.50;44.00;;;;;;8368508;28;19924;-44
2022/12/02 16:45:07;;;;;;;;;;;17.40;44.00;;;;;;8368043;28;19917;-47
2022/12/02 16:49:08;;;;;;;;;;;17.40;44.00;;;;;;8367553;28;19987;-46
2022/12/02 16:53:09;;;;;;;;;;;17.50;44.10;;;;;;8368193;28;19920;-47
2022/12/02 16:57:09;;;;;;;;;;;17.40;44.10;;;;;;8367867;28;20003;-46
2022/12/02 17:01:10;;;;;;;;;;;17.40;44.10;;;;;;8367568;28;19986;-43
2022/12/02 17:05:10;;;;;;;;;;;17.40;44.10;;;;;;8367556;28;19932;-45
2022/12/02 17:09:11;;;;;;;;;;;17.40;44.10;;;;;;8333040;28;19925;-46
2022/12/02 17:13:11;;;;;;;;;;;17.40;44.20;;;;;;8333981;28;19949;-46
2022/12/02 17:17:12;;;;;;;;;;;17.40;44.20;;;;;;8334277;28;19917;-45
2022/12/02 17:21:12;;;;;;;;;;;17.40;44.20;;;;;;8338638;28;20012;-47
2022/12/02 17:25:13;;;;;;;;;;;17.40;44.10;;;;;;8341945;28;19967;-44
2022/12/02 17:29:14;;;;;;;;;;;17.30;44.10;;;;;;8333758;28;19925;-46
2022/12/02 17:33:14;;;;;;;;;;;17.30;44.10;;;;;;8333958;28;20423;-45
2022/12/02 17:37:15;;;;;;;;;;;17.30;44.10;;;;;;8333561;28;19920;-45
2022/12/02 17:41:16;;;;;;;;;;;17.30;44.20;;;;;;8332658;28;20012;-44
2022/12/02 17:45:16;;;;;;;;;;;17.30;44.20;;;;;;8333113;28;20035;-45
2022/12/02 17:49:17;;;;;;;;;;;17.30;44.10;;;;;;8333017;28;20216;-45
2022/12/02 17:53:17;;;;;;;;;;;17.20;44.10;;;;;;8333162;28;20362;-47
2022/12/02 17:57:18;;;;;;;;;;;17.20;44.10;;;;;;8333340;28;19913;-46
2022/12/02 18:01:18;;;;;;;;;;;17.20;44.10;;;;;;8332348;28;19920;-44
2022/12/02 18:05:19;;;;;;;;;;;17.20;44.10;;;;;;8332776;28;19925;-45
2022/12/02 18:09:19;;;;;;;;;;;17.20;44.00;;;;;;8332458;28;20266;-46
2022/12/02 18:13:19;;;;;;;;;;;17.20;43.90;;;;;;8331908;28;19921;-46
2022/12/02 18:17:20;;;;;;;;;;;17.20;43.90;;;;;;8332587;28;20330;-44
2022/12/02 18:21:20;;;;;;;;;;;17.30;44.00;;;;;;8332197;28;20030;-45
2022/12/02 18:25:21;;;;;;;;;;;17.30;43.90;;;;;;8331643;28;20270;-46
2022/12/02 18:29:21;;;;;;;;;;;17.30;43.80;;;;;;8332300;28;20354;-45
2022/12/02 18:33:22;;;;;;;;;;;17.30;43.80;;;;;;8331943;28;19975;-45
2022/12/02 18:37:22;;;;;;;;;;;17.40;43.80;;;;;;8331441;28;19913;-45
2022/12/02 18:41:23;;;;;;;;;;;17.40;43.80;;;;;;8331564;28;19953;-46
2022/12/02 18:45:23;;;;;;;;;;;17.40;43.70;;;;;;8331468;28;20282;-43
2022/12/02 18:49:24;;;;;;;;;;;17.30;43.60;;;;;;8331103;28;20310;-44
2022/12/02 18:53:24;;;;;;;;;;;17.30;43.70;;;;;;8331072;28;19917;-45
2022/12/02 18:57:24;;;;;;;;;;;17.30;43.70;;;;;;8331486;28;20270;-47
2022/12/02 19:01:25;;;;;;;;;;;17.30;43.70;;;;;;8330521;28;20326;-44
2022/12/02 19:05:25;;;;;;;;;;;17.30;43.70;;;;;;8331059;28;19925;-45
2022/12/02 19:09:26;;;;;;;;;;;17.30;43.80;;;;;;8331307;28;19932;-43
2022/12/02 19:13:26;;;;;;;;;;;17.30;43.80;;;;;;8330296;28;19963;-44
2022/12/02 19:17:27;;;;;;;;;;;17.30;43.80;;;;;;8331106;28;19936;-45
2022/12/02 19:21:28;;;;;;;;;;;17.30;43.80;;;;;;8330709;28;20434;-44
2022/12/02 19:25:29;;;;;;;;;;;17.30;43.90;;;;;;8329859;28;19928;-44
2022/12/02 19:29:31;;;;;;;;;;;17.20;43.80;;;;;;8330666;28;20406;-44
2022/12/02 19:33:31;;;;;;;;;;;17.20;43.80;;;;;;8330371;28;20357;-45
2022/12/02 19:37:32;;;;;;;;;;;17.20;43.80;;;;;;8329851;28;19917;-44
2022/12/02 19:41:32;;;;;;;;;;;17.20;43.80;;;;;;8329914;28;20397;-44
2022/12/02 19:45:32;;;;;;;;;;;17.10;43.80;;;;;;8330006;28;19966;-44
2022/12/02 19:49:33;;;;;;;;;;;17.20;43.80;;;;;;8329305;28;19951;-45
2022/12/02 19:53:33;;;;;;;;;;;17.10;43.80;;;;;;8330244;28;19929;-43
2022/12/02 19:57:34;;;;;;;;;;;17.10;43.80;;;;;;8330100;28;19967;-44
2022/12/02 20:01:34;;;;;;;;;;;17.10;43.80;;;;;;8329433;28;19917;-44
2022/12/02 20:05:35;;;;;;;;;;;17.10;43.80;;;;;;8331880;28;19917;-43
2022/12/02 20:09:35;;;;;;;;;;;17.10;43.80;;;;;;8334935;28;20012;-42
2022/12/02 20:13:36;;;;;;;;;;;17.10;43.80;;;;;;8336511;28;20317;-43
2022/12/02 20:17:36;;;;;;;;;;;17.10;43.70;;;;;;8336428;28;19914;-45
2022/12/02 20:21:37;;;;;;;;;;;17.10;43.70;;;;;;8335961;28;19921;-43
2022/12/02 20:25:37;;;;;;;;;;;17.10;43.70;;;;;;8335784;28;19921;-45
2022/12/02 20:29:38;;;;;;;;;;;17.20;43.60;;;;;;8335886;28;19921;-45
2022/12/02 20:33:38;;;;;;;;;;;17.20;43.50;;;;;;8335406;28;19917;-45
2022/12/02 20:37:39;;;;;;;;;;;17.20;43.40;;;;;;8335573;28;19913;-44
2022/12/02 20:41:40;;;;;;;;;;;17.20;43.40;;;;;;8335357;28;19921;-45
2022/12/02 20:45:40;;;;;;;;;;;17.20;43.40;;;;;;8334894;28;20390;-44
2022/12/02 20:49:41;;;;;;;;;;;17.20;43.40;;;;;;8335339;28;19917;-44
2022/12/02 20:53:41;;;;;;;;;;;17.20;43.50;;;;;;8334960;28;19913;-44
2022/12/02 20:57:41;;;;;;;;;;;17.20;43.40;;;;;;8334653;28;20000;-44
2022/12/02 21:01:42;;;;;;;;;;;17.20;43.50;;;;;;8335041;28;19921;-44
2022/12/02 21:05:43;;;;;;;;;;;17.20;43.50;;;;;;8334727;28;19925;-44
2022/12/02 21:09:43;;;;;;;;;;;17.20;43.60;;;;;;8333933;28;19925;-45
2022/12/02 21:13:44;;;;;;;;;;;17.20;43.60;;;;;;8334605;28;19975;-44
2022/12/02 21:17:45;;;;;;;;;;;17.20;43.60;;;;;;8334117;28;19924;-45
2022/12/02 21:21:45;;;;;;;;;;;17.20;43.60;;;;;;8333604;28;20290;-43
2022/12/02 21:25:45;;;;;;;;;;;17.10;43.50;;;;;;8334249;28;19917;-45
2022/12/02 21:29:46;;;;;;;;;;;17.10;43.60;;;;;;8333887;28;19921;-45
2022/12/02 21:33:47;;;;;;;;;;;17.10;43.50;;;;;;8333806;28;20054;-45
2022/12/02 21:37:47;;;;;;;;;;;17.10;43.60;;;;;;8334013;28;20282;-44
2022/12/02 21:41:47;;;;;;;;;;;17.10;43.60;;;;;;8333607;28;19923;-45
2022/12/02 21:45:48;;;;;;;;;;;17.00;43.50;;;;;;8332951;28;20019;-44
2022/12/02 21:49:48;;;;;;;;;;;17.00;43.60;;;;;;8333198;28;19920;-44
2022/12/02 21:53:49;;;;;;;;;;;17.00;43.60;;;;;;8333363;28;20393;-43
2022/12/02 21:57:49;;;;;;;;;;;17.00;43.50;;;;;;8332776;28;20285;-44
2022/12/02 22:01:50;;;;;;;;;;;17.00;43.60;;;;;;8332909;28;19917;-44
2022/12/02 22:05:50;;;;;;;;;;;17.00;43.50;;;;;;8332760;28;20538;-44
2022/12/02 22:09:51;;;;;;;;;;;17.00;43.60;;;;;;8332265;28;19928;-44
2022/12/02 22:13:51;;;;;;;;;;;17.00;43.60;;;;;;8332807;28;20377;-45
2022/12/02 22:17:52;;;;;;;;;;;17.00;43.50;;;;;;8332548;28;19952;-44
2022/12/02 22:21:52;;;;;;;;;;;17.00;43.50;;;;;;8331897;28;19921;-44
2022/12/02 22:25:53;;;;;;;;;;;17.00;43.40;;;;;;8332362;28;19925;-45
2022/12/02 22:29:53;;;;;;;;;;;17.00;43.40;;;;;;8331486;28;20047;-43
2022/12/02 22:33:53;;;;;;;;;;;17.00;43.40;;;;;;8331679;28;19913;-45
2022/12/02 22:37:54;;;;;;;;;;;17.00;43.40;;;;;;8331991;28;19917;-45
2022/12/02 22:41:54;;;;;;;;;;;17.00;43.40;;;;;;8331651;28;19923;-44
2022/12/02 22:45:55;;;;;;;;;;;17.00;43.30;;;;;;8330880;28;20290;-45
2022/12/02 22:49:55;;;;;;;;;;;17.00;43.30;;;;;;8331401;28;19917;-44
2022/12/02 22:53:56;;;;;;;;;;;17.00;43.30;;;;;;8331598;28;19928;-44
2022/12/02 22:57:57;;;;;;;;;;;17.00;43.30;;;;;;8330879;28;19917;-44
2022/12/02 23:01:57;;;;;;;;;;;17.00;43.30;;;;;;8330250;28;20309;-43
2022/12/02 23:05:58;;;;;;;;;;;17.00;43.30;;;;;;8330894;28;19921;-43
2022/12/02 23:09:58;;;;;;;;;;;17.00;43.30;;;;;;8326665;28;19924;-43
2022/12/02 23:13:59;;;;;;;;;;;17.00;43.20;;;;;;8330985;28;19918;-44
2022/12/02 23:17:59;;;;;;;;;;;17.00;43.20;;;;;;8330561;28;20459;-44
2022/12/02 23:22:00;;;;;;;;;;;17.00;43.20;;;;;;8330306;28;19940;-44
2022/12/02 23:26:00;;;;;;;;;;;17.00;43.20;;;;;;8330402;28;20004;-43
2022/12/02 23:30:01;;;;;;;;;;;17.00;43.20;;;;;;8330349;28;19925;-43